Time;durP1;ratioP1;P1;durP2;ratioP2;P2;SDS_P1;SDS_P2;PMS_P1;PMS_P2;Temp;Humidity;BMP_temperature;BMP_pressure;BME280_temperature;BME280_humidity;BME280_pressure;Samples;Min_cycle;Max_cycle;Signal;HPM_P1;HPM_P2
2024/01/19 00:00:16;;;;;;;1.60;1.60;;;;;;;;;;6119318;28;20308;-71
2024/01/19 00:03:21;;;;;;;1.70;1.60;;;;;;;;;;6119351;29;20288;-69
2024/01/19 00:06:25;;;;;;;1.70;1.70;;;;;;;;;;6138367;28;20309;-70
2024/01/19 00:09:29;;;;;;;1.60;1.60;;;;;;;;;;6138014;29;20320;-70
2024/01/19 00:12:35;;;;;;;1.50;1.50;;;;;;;;;;6137169;29;20311;-69
2024/01/19 00:15:40;;;;;;;2.17;1.40;;;;;;;;;;6136874;28;20285;-70
2024/01/19 00:18:47;;;;;;;1.60;1.60;;;;;;;;;;6137895;29;20453;-71
2024/01/19 00:21:51;;;;;;;4.53;1.50;;;;;;;;;;6135604;28;20286;-70
2024/01/19 00:24:55;;;;;;;1.50;1.50;;;;;;;;;;6149050;28;20295;-70
2024/01/19 00:27:59;;;;;;;7.53;1.90;;;;;;;;;;6160543;28;20294;-70
2024/01/19 00:31:03;;;;;;;1.83;1.73;;;;;;;;;;6160688;28;20505;-70
2024/01/19 00:34:08;;;;;;;1.77;1.57;;;;;;;;;;6137850;29;20299;-70
2024/01/19 00:37:12;;;;;;;1.50;1.50;;;;;;;;;;6136660;29;20295;-71
2024/01/19 00:40:17;;;;;;;1.60;1.60;;;;;;;;;;6136607;29;20306;-71
2024/01/19 00:43:21;;;;;;;1.60;1.57;;;;;;;;;;6136933;29;20371;-70
2024/01/19 00:46:24;;;;;;;1.60;1.60;;;;;;;;;;6136683;29;20290;-70
2024/01/19 00:49:30;;;;;;;1.43;1.43;;;;;;;;;;6136909;29;20296;-70
2024/01/19 00:52:34;;;;;;;1.43;1.37;;;;;;;;;;6136662;29;20303;-69
2024/01/19 00:55:39;;;;;;;1.57;1.57;;;;;;;;;;6136162;29;20300;-70
2024/01/19 00:58:44;;;;;;;1.63;1.63;;;;;;;;;;6137249;29;20303;-70
2024/01/19 01:01:49;;;;;;;1.50;1.50;;;;;;;;;;6135977;29;20482;-70
2024/01/19 01:04:54;;;;;;;1.50;1.50;;;;;;;;;;6136639;29;20310;-70
2024/01/19 01:07:58;;;;;;;2.00;1.50;;;;;;;;;;6142716;29;20299;-69
2024/01/19 01:11:03;;;;;;;1.87;1.77;;;;;;;;;;6156416;28;20293;-71
2024/01/19 01:14:09;;;;;;;1.60;1.60;;;;;;;;;;6168410;28;20309;-70
2024/01/19 01:17:13;;;;;;;1.40;1.40;;;;;;;;;;6156826;28;20291;-70
2024/01/19 01:20:20;;;;;;;1.50;1.50;;;;;;;;;;6167888;28;20305;-72
2024/01/19 01:23:24;;;;;;;1.87;1.77;;;;;;;;;;6166672;28;20300;-71
2024/01/19 01:26:28;;;;;;;1.50;1.50;;;;;;;;;;6117921;28;20309;-70
2024/01/19 01:29:32;;;;;;;1.73;1.73;;;;;;;;;;6127563;29;20302;-70
2024/01/19 01:32:36;;;;;;;1.60;1.50;;;;;;;;;;6117682;28;20298;-70
2024/01/19 01:35:41;;;;;;;1.40;1.40;;;;;;;;;;6136634;29;20298;-72
2024/01/19 01:38:46;;;;;;;1.57;1.57;;;;;;;;;;6117447;29;20359;-71
2024/01/19 01:41:50;;;;;;;1.50;1.50;;;;;;;;;;6142803;29;20291;-70
2024/01/19 01:44:54;;;;;;;1.47;1.47;;;;;;;;;;6144161;29;20294;-70
2024/01/19 01:47:59;;;;;;;3.33;1.90;;;;;;;;;;6091812;28;20298;-71
2024/01/19 01:51:05;;;;;;;1.60;1.60;;;;;;;;;;6142282;28;20298;-70
2024/01/19 01:54:10;;;;;;;1.63;1.63;;;;;;;;;;6143905;28;20297;-70
2024/01/19 01:57:14;;;;;;;1.50;1.50;;;;;;;;;;6144104;28;20396;-69
2024/01/19 02:00:18;;;;;;;1.70;1.70;;;;;;;;;;6143335;28;20317;-70
2024/01/19 02:03:22;;;;;;;1.53;1.40;;;;;;;;;;6144129;29;20314;-70
2024/01/19 02:06:28;;;;;;;1.70;1.70;;;;;;;;;;6143495;29;20305;-70
2024/01/19 02:09:33;;;;;;;1.50;1.50;;;;;;;;;;6143107;29;20386;-72
2024/01/19 02:12:37;;;;;;;1.70;1.60;;;;;;;;;;6143494;29;20299;-70
2024/01/19 02:15:41;;;;;;;1.60;1.60;;;;;;;;;;6143406;29;20704;-71
2024/01/19 02:18:45;;;;;;;1.43;1.43;;;;;;;;;;6114169;29;20298;-69
2024/01/19 02:21:50;;;;;;;1.53;1.53;;;;;;;;;;6137424;29;20310;-70
2024/01/19 02:24:55;;;;;;;1.40;1.30;;;;;;;;;;6152015;28;20299;-69
2024/01/19 02:28:01;;;;;;;1.93;1.83;;;;;;;;;;6160375;28;20264;-70
2024/01/19 02:31:05;;;;;;;1.40;1.40;;;;;;;;;;6163853;28;20297;-70
2024/01/19 02:34:09;;;;;;;1.60;1.60;;;;;;;;;;6153807;28;20298;-70
2024/01/19 02:37:14;;;;;;;1.90;1.90;;;;;;;;;;6163604;28;20301;-70
2024/01/19 02:40:19;;;;;;;1.43;1.43;;;;;;;;;;6162643;28;20305;-70
2024/01/19 02:43:23;;;;;;;1.60;1.60;;;;;;;;;;6163706;28;20302;-70
2024/01/19 02:46:27;;;;;;;3.90;1.50;;;;;;;;;;6162640;28;20305;-70
2024/01/19 02:49:31;;;;;;;1.40;1.40;;;;;;;;;;6161223;28;20301;-70
2024/01/19 02:52:35;;;;;;;1.47;1.47;;;;;;;;;;6162883;28;20332;-70
2024/01/19 02:55:40;;;;;;;1.50;1.50;;;;;;;;;;6162773;28;20506;-69
2024/01/19 02:58:44;;;;;;;1.50;1.50;;;;;;;;;;6151485;28;20590;-69
2024/01/19 03:01:48;;;;;;;1.50;1.50;;;;;;;;;;6163436;28;20305;-69
2024/01/19 03:04:52;;;;;;;1.43;1.43;;;;;;;;;;6160898;29;20297;-69
2024/01/19 03:07:57;;;;;;;1.73;1.63;;;;;;;;;;6162095;28;20293;-69
2024/01/19 03:11:02;;;;;;;1.40;1.40;;;;;;;;;;6161361;28;20302;-69
2024/01/19 03:14:06;;;;;;;1.40;1.40;;;;;;;;;;6159610;28;20305;-69
2024/01/19 03:17:10;;;;;;;1.60;1.60;;;;;;;;;;6161679;28;20322;-69
2024/01/19 03:20:15;;;;;;;1.50;1.50;;;;;;;;;;6159461;28;20297;-70
2024/01/19 03:23:19;;;;;;;1.50;1.50;;;;;;;;;;6160110;28;20297;-69
2024/01/19 03:26:24;;;;;;;1.50;1.50;;;;;;;;;;6161258;28;20318;-70
2024/01/19 03:29:28;;;;;;;1.43;1.43;;;;;;;;;;6151025;28;20310;-69
2024/01/19 03:32:33;;;;;;;1.63;1.63;;;;;;;;;;6161769;28;20590;-69
2024/01/19 03:35:37;;;;;;;1.60;1.60;;;;;;;;;;6161681;28;20297;-69
2024/01/19 03:38:41;;;;;;;1.57;1.57;;;;;;;;;;6161896;28;20301;-69
2024/01/19 03:41:46;;;;;;;1.60;1.50;;;;;;;;;;6162000;28;20385;-70
2024/01/19 03:44:50;;;;;;;1.60;1.60;;;;;;;;;;6161718;28;20373;-69
2024/01/19 03:47:54;;;;;;;1.77;1.47;;;;;;;;;;6158218;28;20327;-69
2024/01/19 03:50:58;;;;;;;1.97;1.77;;;;;;;;;;6159343;28;20293;-69
2024/01/19 03:54:02;;;;;;;1.60;1.60;;;;;;;;;;6161269;28;20298;-70
2024/01/19 03:57:08;;;;;;;1.53;1.53;;;;;;;;;;6175542;28;20328;-69
2024/01/19 04:00:13;;;;;;;1.87;1.77;;;;;;;;;;6159436;28;20293;-69
2024/01/19 04:03:19;;;;;;;1.60;1.60;;;;;;;;;;6158677;28;20357;-70
2024/01/19 04:06:24;;;;;;;1.63;1.63;;;;;;;;;;6158948;28;20296;-70
2024/01/19 04:09:28;;;;;;;1.60;1.60;;;;;;;;;;6168387;28;20293;-70
2024/01/19 04:12:33;;;;;;;1.80;1.80;;;;;;;;;;6161328;28;20312;-70
2024/01/19 04:15:40;;;;;;;1.50;1.50;;;;;;;;;;6159834;28;20301;-70
2024/01/19 04:18:44;;;;;;;1.60;1.60;;;;;;;;;;6160646;28;20288;-70
2024/01/19 04:21:48;;;;;;;1.67;1.67;;;;;;;;;;6160484;28;20312;-70
2024/01/19 04:24:52;;;;;;;1.50;1.50;;;;;;;;;;6158427;28;20642;-69
2024/01/19 04:27:58;;;;;;;1.80;1.80;;;;;;;;;;6167680;28;20310;-69
2024/01/19 04:31:02;;;;;;;1.97;1.97;;;;;;;;;;6159315;28;20328;-70
2024/01/19 04:34:06;;;;;;;1.70;1.60;;;;;;;;;;6151448;28;20301;-69
2024/01/19 04:37:10;;;;;;;1.63;1.53;;;;;;;;;;6161018;28;20302;-70
2024/01/19 04:40:15;;;;;;;1.87;1.77;;;;;;;;;;6160337;28;20301;-70
2024/01/19 04:43:20;;;;;;;2.10;1.90;;;;;;;;;;6160065;28;20301;-70
2024/01/19 04:46:24;;;;;;;1.70;1.70;;;;;;;;;;6160306;28;20306;-69
2024/01/19 04:49:28;;;;;;;1.70;1.70;;;;;;;;;;6159154;28;20488;-69
2024/01/19 04:52:32;;;;;;;2.00;1.90;;;;;;;;;;6160672;28;20304;-70
2024/01/19 04:55:36;;;;;;;1.90;1.90;;;;;;;;;;6149359;28;20598;-70
2024/01/19 04:58:42;;;;;;;1.53;1.53;;;;;;;;;;6160323;28;20316;-70
2024/01/19 05:01:46;;;;;;;1.60;1.60;;;;;;;;;;6159621;28;20379;-71
2024/01/19 05:04:50;;;;;;;1.73;1.73;;;;;;;;;;6160194;28;20350;-71
2024/01/19 05:07:55;;;;;;;1.77;1.60;;;;;;;;;;6158199;28;20594;-70
2024/01/19 05:10:59;;;;;;;1.70;1.70;;;;;;;;;;6160376;28;20313;-70
2024/01/19 05:14:06;;;;;;;1.53;1.53;;;;;;;;;;6158403;28;20609;-70
2024/01/19 05:17:10;;;;;;;1.87;1.77;;;;;;;;;;6158526;28;20317;-70
2024/01/19 05:20:14;;;;;;;1.40;1.40;;;;;;;;;;6157646;28;20309;-70
2024/01/19 05:23:18;;;;;;;1.67;1.67;;;;;;;;;;6159655;28;20317;-71
2024/01/19 05:26:22;;;;;;;1.70;1.70;;;;;;;;;;6159586;28;20603;-73
2024/01/19 05:29:27;;;;;;;1.97;1.93;;;;;;;;;;6159108;28;20301;-71
2024/01/19 05:32:31;;;;;;;1.70;1.70;;;;;;;;;;6158377;28;20572;-70
2024/01/19 05:35:35;;;;;;;1.70;1.70;;;;;;;;;;6157439;28;20301;-70
2024/01/19 05:38:40;;;;;;;2.07;1.97;;;;;;;;;;6157293;28;20302;-70
2024/01/19 05:41:44;;;;;;;1.80;1.80;;;;;;;;;;6160087;28;20292;-70
2024/01/19 05:44:49;;;;;;;1.90;1.90;;;;;;;;;;6159418;28;20301;-71
2024/01/19 05:47:53;;;;;;;2.10;2.00;;;;;;;;;;6158876;28;20298;-71
2024/01/19 05:50:57;;;;;;;4.37;2.20;;;;;;;;;;6163960;28;20317;-71
2024/01/19 05:54:01;;;;;;;2.10;1.90;;;;;;;;;;6162118;28;20570;-68
2024/01/19 05:57:06;;;;;;;2.20;2.10;;;;;;;;;;6164087;28;20598;-70
2024/01/19 06:00:12;;;;;;;2.00;2.00;;;;;;;;;;6162068;28;20305;-70
2024/01/19 06:03:16;;;;;;;2.13;2.03;;;;;;;;;;6163513;28;20293;-71
2024/01/19 06:06:20;;;;;;;2.30;2.20;;;;;;;;;;6164353;28;20297;-70
2024/01/19 06:09:25;;;;;;;2.10;2.00;;;;;;;;;;6161740;28;20301;-70
2024/01/19 06:12:29;;;;;;;1.90;1.90;;;;;;;;;;6163052;28;20465;-69
2024/01/19 06:15:35;;;;;;;1.70;1.60;;;;;;;;;;6163427;28;20293;-69
2024/01/19 06:18:39;;;;;;;1.87;1.87;;;;;;;;;;6163192;28;20301;-70
2024/01/19 06:21:45;;;;;;;5.13;2.03;;;;;;;;;;6163863;28;20598;-72
2024/01/19 06:24:50;;;;;;;2.00;1.90;;;;;;;;;;6168075;28;20301;-69
2024/01/19 06:27:56;;;;;;;3.10;3.00;;;;;;;;;;6163522;28;20309;-69
2024/01/19 06:31:03;;;;;;;2.83;2.57;;;;;;;;;;6162560;28;20585;-69
2024/01/19 06:34:07;;;;;;;2.30;2.27;;;;;;;;;;6163180;28;20305;-70
2024/01/19 06:37:11;;;;;;;5.60;3.30;;;;;;;;;;6163695;28;20302;-70
2024/01/19 06:40:15;;;;;;;2.10;2.00;;;;;;;;;;6162996;28;20388;-70
2024/01/19 06:43:19;;;;;;;1.97;1.97;;;;;;;;;;6161643;28;20614;-71
2024/01/19 06:46:25;;;;;;;3.00;2.30;;;;;;;;;;6163747;28;20310;-72
2024/01/19 06:49:29;;;;;;;1.90;1.90;;;;;;;;;;6162734;28;20331;-70
2024/01/19 06:52:33;;;;;;;1.60;1.60;;;;;;;;;;6161345;28;20285;-70
2024/01/19 06:55:36;;;;;;;1.97;1.97;;;;;;;;;;6162502;28;20296;-70
2024/01/19 06:58:40;;;;;;;2.20;2.20;;;;;;;;;;6162640;28;20336;-70
2024/01/19 07:01:46;;;;;;;2.20;2.20;;;;;;;;;;6162767;28;20297;-71
2024/01/19 07:04:50;;;;;;;2.03;1.97;;;;;;;;;;6157040;28;20341;-71
2024/01/19 07:07:55;;;;;;;2.17;2.00;;;;;;;;;;6160442;28;20332;-70
2024/01/19 07:11:02;;;;;;;1.87;1.87;;;;;;;;;;6162701;28;20297;-69
2024/01/19 07:14:06;;;;;;;1.70;1.70;;;;;;;;;;6162292;28;20317;-69
2024/01/19 07:17:11;;;;;;;2.33;2.20;;;;;;;;;;6162830;28;20297;-70
2024/01/19 07:20:19;;;;;;;1.80;1.80;;;;;;;;;;6163045;28;20306;-71
2024/01/19 07:23:23;;;;;;;2.20;2.10;;;;;;;;;;6161497;28;20305;-71
2024/01/19 07:26:26;;;;;;;2.23;2.00;;;;;;;;;;6176320;28;20522;-71
2024/01/19 07:29:31;;;;;;;2.17;2.07;;;;;;;;;;6161829;28;20297;-73
2024/01/19 07:32:36;;;;;;;2.30;2.20;;;;;;;;;;6161152;28;20293;-72
2024/01/19 07:36:00;;;;;;;2.20;2.13;;;;;;;;;;6162120;28;20566;-71
2024/01/19 07:39:04;;;;;;;1.93;1.90;;;;;;;;;;6161242;28;20317;-71
2024/01/19 07:42:08;;;;;;;2.83;2.13;;;;;;;;;;6160023;28;20301;-71
2024/01/19 07:45:12;;;;;;;2.13;2.03;;;;;;;;;;6160292;28;20300;-71
2024/01/19 07:48:18;;;;;;;2.33;2.20;;;;;;;;;;6159185;28;20309;-71
2024/01/19 07:51:24;;;;;;;2.10;2.00;;;;;;;;;;6162595;28;20310;-71
2024/01/19 07:54:28;;;;;;;2.50;2.30;;;;;;;;;;6159882;28;20313;-72
2024/01/19 07:57:32;;;;;;;2.17;2.17;;;;;;;;;;6162046;28;20306;-71
2024/01/19 08:00:36;;;;;;;2.07;1.93;;;;;;;;;;6153915;28;20309;-71
2024/01/19 08:03:42;;;;;;;2.37;2.17;;;;;;;;;;6158612;28;20481;-67
2024/01/19 08:06:46;;;;;;;2.47;2.37;;;;;;;;;;6161346;28;20480;-69
2024/01/19 08:09:50;;;;;;;2.00;1.90;;;;;;;;;;6161795;28;20295;-71
2024/01/19 08:12:54;;;;;;;2.03;1.73;;;;;;;;;;6161450;28;20298;-70
2024/01/19 08:15:58;;;;;;;6.53;2.20;;;;;;;;;;6160529;28;20296;-70
2024/01/19 08:19:04;;;;;;;2.20;2.10;;;;;;;;;;6149595;28;20471;-70
2024/01/19 08:22:08;;;;;;;2.10;2.10;;;;;;;;;;6175428;28;20305;-71
2024/01/19 08:25:12;;;;;;;2.40;2.00;;;;;;;;;;6159579;28;20301;-71
2024/01/19 08:28:16;;;;;;;1.97;1.90;;;;;;;;;;6159252;28;20301;-71
2024/01/19 08:31:20;;;;;;;2.10;2.10;;;;;;;;;;6165317;28;20305;-72
2024/01/19 08:34:25;;;;;;;1.90;1.90;;;;;;;;;;6161104;28;20289;-71
2024/01/19 08:37:29;;;;;;;2.27;2.17;;;;;;;;;;6161018;28;20301;-70
2024/01/19 08:40:33;;;;;;;2.47;2.37;;;;;;;;;;6160736;28;20294;-71
2024/01/19 08:43:37;;;;;;;2.10;2.10;;;;;;;;;;6160571;28;20293;-71
2024/01/19 08:46:44;;;;;;;2.33;2.23;;;;;;;;;;6160846;28;20309;-71
2024/01/19 08:49:49;;;;;;;2.17;2.17;;;;;;;;;;6159817;28;20301;-70
2024/01/19 08:52:53;;;;;;;2.03;2.03;;;;;;;;;;6160264;28;20296;-71
2024/01/19 08:55:57;;;;;;;2.60;2.50;;;;;;;;;;6158785;28;20293;-71
2024/01/19 08:59:01;;;;;;;2.27;2.17;;;;;;;;;;6160293;28;20457;-70
2024/01/19 09:02:05;;;;;;;2.10;2.00;;;;;;;;;;6160535;28;20293;-70
2024/01/19 09:05:12;;;;;;;2.80;2.60;;;;;;;;;;6159918;28;20300;-69
2024/01/19 09:08:16;;;;;;;2.60;2.50;;;;;;;;;;6159899;28;20312;-69
2024/01/19 09:11:20;;;;;;;2.50;2.40;;;;;;;;;;6160870;28;20589;-69
2024/01/19 09:14:26;;;;;;;4.73;2.43;;;;;;;;;;6159585;28;20302;-70
2024/01/19 09:17:30;;;;;;;2.20;2.10;;;;;;;;;;6160578;28;20509;-70
2024/01/19 09:20:36;;;;;;;1.90;1.90;;;;;;;;;;6156424;28;20300;-70
2024/01/19 09:23:39;;;;;;;2.50;2.30;;;;;;;;;;6173061;28;20308;-70
2024/01/19 09:26:44;;;;;;;2.40;2.30;;;;;;;;;;6160136;28;20301;-70
2024/01/19 09:29:48;;;;;;;2.20;2.10;;;;;;;;;;6164043;28;20297;-70
2024/01/19 09:32:52;;;;;;;3.10;2.43;;;;;;;;;;6151981;28;20293;-69
2024/01/19 09:35:58;;;;;;;2.03;1.93;;;;;;;;;;6140974;29;20306;-70
2024/01/19 09:39:02;;;;;;;2.03;2.03;;;;;;;;;;6140266;29;20297;-71
2024/01/19 09:42:09;;;;;;;2.07;2.03;;;;;;;;;;6140576;29;20466;-70
2024/01/19 09:45:17;;;;;;;2.40;2.30;;;;;;;;;;6139659;29;20309;-70
2024/01/19 09:48:23;;;;;;;2.07;2.07;;;;;;;;;;6140578;29;20609;-71
2024/01/19 09:51:37;;;;;;;2.47;2.10;;;;;;;;;;6136822;29;20578;-70
2024/01/19 09:54:41;;;;;;;2.50;2.40;;;;;;;;;;6138187;29;20294;-70
2024/01/19 09:57:46;;;;;;;2.83;2.40;;;;;;;;;;6139809;29;20294;-70
2024/01/19 10:00:51;;;;;;;2.07;1.97;;;;;;;;;;6140289;29;20297;-70
2024/01/19 10:03:59;;;;;;;2.63;2.40;;;;;;;;;;6136277;29;20293;-70
2024/01/19 10:07:05;;;;;;;2.80;2.10;;;;;;;;;;6131762;29;20308;-71
2024/01/19 10:10:09;;;;;;;2.13;2.13;;;;;;;;;;6128198;29;20302;-70
2024/01/19 10:13:13;;;;;;;2.57;2.47;;;;;;;;;;6163248;28;20297;-70
2024/01/19 10:16:17;;;;;;;2.67;2.40;;;;;;;;;;6163842;28;20484;-70
2024/01/19 10:19:21;;;;;;;2.50;2.40;;;;;;;;;;6163130;28;20492;-70
2024/01/19 10:22:28;;;;;;;2.13;2.03;;;;;;;;;;6164010;28;20297;-71
2024/01/19 10:25:34;;;;;;;3.00;2.30;;;;;;;;;;6134639;28;20294;-70
2024/01/19 10:28:39;;;;;;;5.43;2.33;;;;;;;;;;6141088;28;20316;-70
2024/01/19 10:31:44;;;;;;;2.67;2.57;;;;;;;;;;6160909;28;20302;-70
2024/01/19 10:34:52;;;;;;;2.23;2.23;;;;;;;;;;6138516;29;20470;-70
2024/01/19 10:38:05;;;;;;;2.20;2.20;;;;;;;;;;6139119;29;20306;-71
2024/01/19 10:41:15;;;;;;;2.57;2.40;;;;;;;;;;6139127;29;20578;-70
2024/01/19 10:44:23;;;;;;;2.80;2.70;;;;;;;;;;6139270;29;20598;-71
2024/01/19 10:47:28;;;;;;;2.40;2.30;;;;;;;;;;6139532;29;20302;-70
2024/01/19 10:50:32;;;;;;;3.23;2.60;;;;;;;;;;6138783;29;20413;-70
2024/01/19 10:53:38;;;;;;;2.10;2.00;;;;;;;;;;6138529;29;20556;-70
2024/01/19 10:56:44;;;;;;;2.00;2.00;;;;;;;;;;6138736;29;20417;-71
2024/01/19 10:59:48;;;;;;;2.37;2.27;;;;;;;;;;6138827;29;20575;-71
2024/01/19 11:02:54;;;;;;;2.10;2.10;;;;;;;;;;6138551;29;20318;-71
2024/01/19 11:05:59;;;;;;;3.50;2.67;;;;;;;;;;6121911;29;20306;-70
2024/01/19 11:09:06;;;;;;;3.80;2.40;;;;;;;;;;6138929;29;20298;-71
2024/01/19 11:12:13;;;;;;;2.93;2.73;;;;;;;;;;6160994;28;20301;-71
2024/01/19 11:15:24;;;;;;;2.57;2.37;;;;;;;;;;6162414;28;20465;-71
2024/01/19 11:18:29;;;;;;;2.33;2.23;;;;;;;;;;6151623;28;20313;-70
2024/01/19 11:21:34;;;;;;;2.27;2.23;;;;;;;;;;6145803;29;20479;-70
2024/01/19 11:24:41;;;;;;;2.43;2.20;;;;;;;;;;6161596;28;20298;-71
2024/01/19 11:27:51;;;;;;;2.47;2.30;;;;;;;;;;6162846;28;20559;-69
2024/01/19 11:31:10;;;;;;;2.90;2.43;;;;;;;;;;6153246;28;20286;-70
2024/01/19 11:34:49;;;;;;;2.33;2.20;;;;;;;;;;6138283;29;20302;-70
2024/01/19 11:37:54;;;;;;;2.10;2.00;;;;;;;;;;6039619;29;20309;-70
2024/01/19 11:41:00;;;;;;;2.90;2.60;;;;;;;;;;6043023;29;20300;-70
2024/01/19 11:44:05;;;;;;;4.07;2.37;;;;;;;;;;6043162;29;20301;-70
2024/01/19 11:47:09;;;;;;;2.27;2.17;;;;;;;;;;6042128;29;20297;-69
2024/01/19 11:50:13;;;;;;;3.13;2.23;;;;;;;;;;6041740;29;20297;-70
2024/01/19 11:53:18;;;;;;;2.00;1.90;;;;;;;;;;6024130;29;20305;-70
2024/01/19 11:56:24;;;;;;;2.60;2.40;;;;;;;;;;6042307;29;20301;-70
2024/01/19 11:59:28;;;;;;;2.60;2.50;;;;;;;;;;6040973;29;20384;-72
2024/01/19 12:02:33;;;;;;;3.67;2.47;;;;;;;;;;6041866;29;20609;-70
2024/01/19 12:05:40;;;;;;;2.93;2.47;;;;;;;;;;6032130;29;20293;-70
2024/01/19 12:08:44;;;;;;;2.07;2.07;;;;;;;;;;6094338;29;20299;-71
2024/01/19 12:11:50;;;;;;;2.40;2.30;;;;;;;;;;6111815;29;20462;-71
2024/01/19 12:14:54;;;;;;;2.30;2.20;;;;;;;;;;6126824;29;20478;-69
2024/01/19 12:17:59;;;;;;;2.60;2.50;;;;;;;;;;6136164;29;20302;-70
2024/01/19 12:21:04;;;;;;;2.40;2.30;;;;;;;;;;6126056;29;20298;-69
2024/01/19 12:24:08;;;;;;;2.37;2.20;;;;;;;;;;6139913;29;20303;-69
2024/01/19 12:27:17;;;;;;;2.47;2.27;;;;;;;;;;6161270;28;20353;-69
2024/01/19 12:30:21;;;;;;;2.13;2.03;;;;;;;;;;6156985;28;20299;-70
2024/01/19 12:33:28;;;;;;;2.40;2.30;;;;;;;;;;6158984;28;20294;-71
2024/01/19 12:36:33;;;;;;;2.23;2.13;;;;;;;;;;6161226;28;20583;-71
2024/01/19 12:39:37;;;;;;;2.20;2.10;;;;;;;;;;6160667;28;20303;-71
2024/01/19 12:42:42;;;;;;;2.70;2.50;;;;;;;;;;6160028;28;20327;-71
2024/01/19 12:45:46;;;;;;;2.40;2.30;;;;;;;;;;6160635;28;20295;-71
2024/01/19 12:48:57;;;;;;;2.70;2.50;;;;;;;;;;6160436;28;20305;-72
2024/01/19 12:52:01;;;;;;;2.43;2.23;;;;;;;;;;6161337;28;20306;-71
2024/01/19 12:55:06;;;;;;;2.40;2.30;;;;;;;;;;6160849;28;20307;-71
2024/01/19 12:58:11;;;;;;;2.50;2.40;;;;;;;;;;6160618;28;20299;-70
2024/01/19 13:01:17;;;;;;;2.97;2.63;;;;;;;;;;6160134;28;20599;-71
2024/01/19 13:04:22;;;;;;;2.40;2.30;;;;;;;;;;6158746;28;20294;-70
2024/01/19 13:07:26;;;;;;;2.30;2.20;;;;;;;;;;6160601;28;20313;-71
2024/01/19 13:10:30;;;;;;;6.00;2.40;;;;;;;;;;6160342;28;20488;-71
2024/01/19 13:13:36;;;;;;;2.70;2.60;;;;;;;;;;6159076;28;20362;-71
2024/01/19 13:16:53;;;;;;;2.63;2.30;;;;;;;;;;6160764;28;20297;-71
2024/01/19 13:19:57;;;;;;;3.23;2.77;;;;;;;;;;6160397;28;20389;-71
2024/01/19 13:23:01;;;;;;;2.23;2.17;;;;;;;;;;6160201;28;20454;-71
2024/01/19 13:26:05;;;;;;;2.17;2.17;;;;;;;;;;6160473;28;20309;-71
2024/01/19 13:29:10;;;;;;;2.93;2.73;;;;;;;;;;6159809;28;20299;-71
2024/01/19 13:32:14;;;;;;;2.80;2.60;;;;;;;;;;6160541;28;20303;-71
2024/01/19 13:35:18;;;;;;;3.03;2.10;;;;;;;;;;6160253;28;20573;-71
2024/01/19 13:38:23;;;;;;;2.53;2.40;;;;;;;;;;6159290;28;20310;-72
2024/01/19 13:41:27;;;;;;;2.70;2.60;;;;;;;;;;6158982;28;20338;-73
2024/01/19 13:44:32;;;;;;;2.63;2.43;;;;;;;;;;6157280;28;20294;-72
2024/01/19 13:47:36;;;;;;;2.50;2.40;;;;;;;;;;6159868;28;20317;-71
2024/01/19 13:50:40;;;;;;;2.33;2.23;;;;;;;;;;6160488;28;20615;-71
2024/01/19 13:53:45;;;;;;;2.57;2.50;;;;;;;;;;6159817;28;20301;-70
2024/01/19 13:56:49;;;;;;;3.83;2.60;;;;;;;;;;6160103;28;20294;-71
2024/01/19 13:59:54;;;;;;;2.60;2.50;;;;;;;;;;6159676;28;20298;-70
2024/01/19 14:02:58;;;;;;;2.63;2.43;;;;;;;;;;6159785;28;20298;-72
2024/01/19 14:06:03;;;;;;;2.40;2.30;;;;;;;;;;6160157;28;20393;-71
2024/01/19 14:09:07;;;;;;;2.67;2.57;;;;;;;;;;6159371;28;20309;-70
2024/01/19 14:12:12;;;;;;;2.50;2.37;;;;;;;;;;6159615;28;20305;-70
2024/01/19 14:15:18;;;;;;;2.90;2.50;;;;;;;;;;6158700;28;20345;-72
2024/01/19 14:18:23;;;;;;;2.57;2.47;;;;;;;;;;6163830;28;20309;-71
2024/01/19 14:21:27;;;;;;;2.30;2.30;;;;;;;;;;6164283;28;20302;-70
2024/01/19 14:24:31;;;;;;;3.53;2.50;;;;;;;;;;6163458;28;20328;-71
2024/01/19 14:27:35;;;;;;;2.53;2.43;;;;;;;;;;6159449;28;20299;-71
2024/01/19 14:30:40;;;;;;;3.70;2.90;;;;;;;;;;6163959;28;20324;-71
2024/01/19 14:33:44;;;;;;;2.93;2.70;;;;;;;;;;6163522;28;20298;-71
2024/01/19 14:36:48;;;;;;;2.70;2.50;;;;;;;;;;6163744;28;20290;-70
2024/01/19 14:39:52;;;;;;;2.30;2.20;;;;;;;;;;6163257;28;20292;-71
2024/01/19 14:42:56;;;;;;;2.77;2.63;;;;;;;;;;6163405;28;20301;-71
2024/01/19 14:46:05;;;;;;;2.83;2.73;;;;;;;;;;6163996;28;20298;-71
2024/01/19 14:49:09;;;;;;;4.93;3.10;;;;;;;;;;6161559;28;20325;-71
2024/01/19 14:52:13;;;;;;;3.00;2.70;;;;;;;;;;6164041;28;20560;-71
2024/01/19 14:55:18;;;;;;;2.83;2.60;;;;;;;;;;6163292;28;20401;-71
2024/01/19 14:58:22;;;;;;;5.70;2.80;;;;;;;;;;6163231;28;20303;-70
2024/01/19 15:01:27;;;;;;;2.67;2.47;;;;;;;;;;6162336;28;20309;-71
2024/01/19 15:04:31;;;;;;;2.70;2.60;;;;;;;;;;6160856;28;20299;-71
2024/01/19 15:07:35;;;;;;;2.70;2.50;;;;;;;;;;6167545;28;20309;-72
2024/01/19 15:10:40;;;;;;;3.03;2.83;;;;;;;;;;6161079;28;20302;-72
2024/01/19 15:13:44;;;;;;;2.97;2.77;;;;;;;;;;6162923;28;20585;-70
2024/01/19 15:16:49;;;;;;;4.80;3.00;;;;;;;;;;6161606;28;20301;-71
2024/01/19 15:19:54;;;;;;;2.87;2.77;;;;;;;;;;6162097;28;20301;-71
2024/01/19 15:22:58;;;;;;;4.47;3.30;;;;;;;;;;6161535;28;20465;-70
2024/01/19 15:26:03;;;;;;;3.07;2.83;;;;;;;;;;6162354;28;20317;-71
2024/01/19 15:29:06;;;;;;;3.00;2.90;;;;;;;;;;6160717;28;20318;-71
2024/01/19 15:32:12;;;;;;;5.23;2.63;;;;;;;;;;6161336;28;20502;-70
2024/01/19 15:35:16;;;;;;;3.70;3.40;;;;;;;;;;6156887;28;20304;-71
2024/01/19 15:38:22;;;;;;;3.50;3.20;;;;;;;;;;6162012;28;20306;-70
2024/01/19 15:41:26;;;;;;;3.00;2.80;;;;;;;;;;6161049;28;20310;-73
2024/01/19 15:44:30;;;;;;;3.03;2.93;;;;;;;;;;6160062;28;20538;-73
2024/01/19 15:47:37;;;;;;;3.03;2.73;;;;;;;;;;6160246;28;20297;-71
2024/01/19 15:50:41;;;;;;;3.80;3.20;;;;;;;;;;6159358;28;20317;-72
2024/01/19 15:53:45;;;;;;;4.13;3.13;;;;;;;;;;6159884;28;20318;-72
2024/01/19 15:56:49;;;;;;;2.70;2.60;;;;;;;;;;6161913;28;20293;-72
2024/01/19 15:59:52;;;;;;;4.13;2.63;;;;;;;;;;6161239;28;20444;-70
2024/01/19 16:02:58;;;;;;;2.83;2.67;;;;;;;;;;6161405;28;20309;-71
2024/01/19 16:06:07;;;;;;;4.00;3.60;;;;;;;;;;6161869;28;20309;-71
2024/01/19 16:09:11;;;;;;;6.33;3.27;;;;;;;;;;6160464;28;20310;-70
2024/01/19 16:12:15;;;;;;;4.00;2.70;;;;;;;;;;6161629;28;20307;-71
2024/01/19 16:15:19;;;;;;;3.07;2.97;;;;;;;;;;6161207;28;20465;-71
2024/01/19 16:18:24;;;;;;;3.63;2.87;;;;;;;;;;6150326;28;20301;-71
2024/01/19 16:21:28;;;;;;;3.67;3.20;;;;;;;;;;6161793;28;20590;-72
2024/01/19 16:24:32;;;;;;;3.50;3.30;;;;;;;;;;6160956;28;20321;-72
2024/01/19 16:27:36;;;;;;;4.73;3.90;;;;;;;;;;6160070;28;20305;-72
2024/01/19 16:30:41;;;;;;;4.37;3.00;;;;;;;;;;6160817;28;20309;-71
2024/01/19 16:33:47;;;;;;;2.97;2.77;;;;;;;;;;6160618;28;20498;-71
2024/01/19 16:36:51;;;;;;;5.00;3.20;;;;;;;;;;6159027;28;20532;-71
2024/01/19 16:39:55;;;;;;;4.13;3.83;;;;;;;;;;6160857;28;20300;-70
2024/01/19 16:42:59;;;;;;;6.23;2.70;;;;;;;;;;6159588;28;20562;-70
2024/01/19 16:46:04;;;;;;;4.47;3.23;;;;;;;;;;6161401;28;20301;-69
2024/01/19 16:49:10;;;;;;;5.73;2.93;;;;;;;;;;6160477;28;20301;-70
2024/01/19 16:52:14;;;;;;;5.57;3.33;;;;;;;;;;6160003;28;20558;-69
2024/01/19 16:55:18;;;;;;;3.87;3.60;;;;;;;;;;6158338;28;20304;-67
2024/01/19 16:58:22;;;;;;;11.60;4.40;;;;;;;;;;6160268;28;20317;-69
2024/01/19 17:01:26;;;;;;;4.90;3.53;;;;;;;;;;6160982;28;20289;-70
2024/01/19 17:04:31;;;;;;;4.93;3.93;;;;;;;;;;6160941;28;20304;-69
2024/01/19 17:07:35;;;;;;;3.80;3.53;;;;;;;;;;6154164;28;20301;-68
2024/01/19 17:10:40;;;;;;;3.80;3.60;;;;;;;;;;6149603;28;20292;-67
2024/01/19 17:13:45;;;;;;;3.90;3.60;;;;;;;;;;6160162;28;20342;-68
2024/01/19 17:16:48;;;;;;;4.83;3.77;;;;;;;;;;6161122;28;20427;-69
2024/01/19 17:19:54;;;;;;;4.57;4.17;;;;;;;;;;6159991;28;20301;-71
2024/01/19 17:22:58;;;;;;;3.93;3.70;;;;;;;;;;6159815;28;20438;-70
2024/01/19 17:26:02;;;;;;;4.73;4.30;;;;;;;;;;6160200;28;20309;-71
2024/01/19 17:29:07;;;;;;;4.47;3.93;;;;;;;;;;6158446;28;20305;-70
2024/01/19 17:32:11;;;;;;;3.97;3.67;;;;;;;;;;6160476;28;20304;-71
2024/01/19 17:35:16;;;;;;;4.43;4.13;;;;;;;;;;6160306;28;20462;-71
2024/01/19 17:38:21;;;;;;;5.83;4.20;;;;;;;;;;6159461;28;20302;-71
2024/01/19 17:41:25;;;;;;;4.33;3.50;;;;;;;;;;6159736;28;20293;-72
2024/01/19 17:44:29;;;;;;;4.10;3.80;;;;;;;;;;6159695;28;20292;-72
2024/01/19 17:47:33;;;;;;;3.67;3.27;;;;;;;;;;6158585;28;20296;-70
2024/01/19 17:50:38;;;;;;;4.00;3.70;;;;;;;;;;6164471;28;20293;-71
2024/01/19 17:53:42;;;;;;;3.67;3.47;;;;;;;;;;6164544;28;20552;-69
2024/01/19 17:56:46;;;;;;;5.23;3.77;;;;;;;;;;6164513;28;20296;-70
2024/01/19 17:59:50;;;;;;;4.57;3.70;;;;;;;;;;6162580;28;20568;-69
2024/01/19 18:02:53;;;;;;;3.80;3.60;;;;;;;;;;6162273;28;20288;-69
2024/01/19 18:05:59;;;;;;;3.37;3.17;;;;;;;;;;6162860;28;20299;-69
2024/01/19 18:09:04;;;;;;;6.63;4.10;;;;;;;;;;6163922;28;20435;-69
2024/01/19 18:12:09;;;;;;;7.83;4.47;;;;;;;;;;6164337;28;20296;-70
2024/01/19 18:15:13;;;;;;;9.37;3.60;;;;;;;;;;6164091;28;20301;-69
2024/01/19 18:18:17;;;;;;;3.97;3.67;;;;;;;;;;6163913;28;20296;-70
2024/01/19 18:21:38;;;;;;;3.80;3.50;;;;;;;;;;6164255;28;20305;-72
2024/01/19 18:24:42;;;;;;;7.43;3.83;;;;;;;;;;6161035;28;20468;-71
2024/01/19 18:27:46;;;;;;;6.67;3.93;;;;;;;;;;6161477;28;20308;-71